sensor_id;sensor_type;location;lat;lon;timestamp;pressure;altitude;pressure_sealevel;temperature;humidity
43934;BME280;59081;42.706;23.306;2023-05-12T00:02:21;95285.59;;;7.06;81.39
43934;BME280;59081;42.706;23.306;2023-05-12T00:04:47;95356.66;;;7.47;81.26
43934;BME280;59081;42.706;23.306;2023-05-12T00:07:12;95288.69;;;7.08;82.12
43934;BME280;59081;42.706;23.306;2023-05-12T00:09:38;95354.03;;;7.40;80.29
43934;BME280;59081;42.706;23.306;2023-05-12T00:12:05;95364.63;;;7.38;81.25
43934;BME280;59081;42.706;23.306;2023-05-12T00:14:31;95293.53;;;6.96;81.10
43934;BME280;59081;42.706;23.306;2023-05-12T00:16:56;95373.56;;;7.42;80.50
43934;BME280;59081;42.706;23.306;2023-05-12T00:19:22;95361.88;;;7.38;81.59
43934;BME280;59081;42.706;23.306;2023-05-12T00:21:47;95369.31;;;7.37;80.88
43934;BME280;59081;42.706;23.306;2023-05-12T00:24:13;95437.28;;;7.80;80.40
43934;BME280;59081;42.706;23.306;2023-05-12T00:26:38;95341.75;;;7.21;79.73
43934;BME280;59081;42.706;23.306;2023-05-12T00:29:04;95383.09;;;7.30;81.03
43934;BME280;59081;42.706;23.306;2023-05-12T00:31:29;95373.69;;;7.31;81.04
43934;BME280;59081;42.706;23.306;2023-05-12T00:33:55;95336.81;;;7.09;81.08
43934;BME280;59081;42.706;23.306;2023-05-12T00:36:20;95352.00;;;7.13;81.12
43934;BME280;59081;42.706;23.306;2023-05-12T00:38:46;95397.50;;;7.38;81.54
43934;BME280;59081;42.706;23.306;2023-05-12T00:41:11;95312.88;;;6.82;82.02
43934;BME280;59081;42.706;23.306;2023-05-12T00:43:37;95402.25;;;7.33;81.60
43934;BME280;59081;42.706;23.306;2023-05-12T00:46:04;95329.41;;;6.75;82.14
43934;BME280;59081;42.706;23.306;2023-05-12T00:48:31;95389.97;;;7.11;83.65
43934;BME280;59081;42.706;23.306;2023-05-12T00:50:58;95382.13;;;7.13;84.88
43934;BME280;59081;42.706;23.306;2023-05-12T00:53:24;95354.72;;;6.83;84.47
43934;BME280;59081;42.706;23.306;2023-05-12T00:55:50;95488.78;;;7.65;86.58
43934;BME280;59081;42.706;23.306;2023-05-12T00:58:15;95480.94;;;7.67;86.53
43934;BME280;59081;42.706;23.306;2023-05-12T01:00:41;95342.34;;;6.71;86.92
43934;BME280;59081;42.706;23.306;2023-05-12T01:03:07;95437.97;;;7.26;88.06
43934;BME280;59081;42.706;23.306;2023-05-12T01:05:55;95364.91;;;6.79;88.32
43934;BME280;59081;42.706;23.306;2023-05-12T01:08:25;95292.44;;;6.19;89.12
43934;BME280;59081;42.706;23.306;2023-05-12T01:10:51;95343.41;;;6.43;91.08
43934;BME280;59081;42.706;23.306;2023-05-12T01:13:16;95381.25;;;6.52;92.20
43934;BME280;59081;42.706;23.306;2023-05-12T01:15:45;95452.31;;;7.00;92.18
43934;BME280;59081;42.706;23.306;2023-05-12T01:18:12;95486.69;;;7.08;92.85
43934;BME280;59081;42.706;23.306;2023-05-12T01:20:41;95350.94;;;6.32;92.79
43934;BME280;59081;42.706;23.306;2023-05-12T01:23:08;95403.38;;;6.68;93.29
43934;BME280;59081;42.706;23.306;2023-05-12T01:25:34;95388.72;;;6.48;94.20
43934;BME280;59081;42.706;23.306;2023-05-12T01:28:01;95346.44;;;6.08;95.35
43934;BME280;59081;42.706;23.306;2023-05-12T01:30:28;95397.84;;;6.31;96.21
43934;BME280;59081;42.706;23.306;2023-05-12T01:32:55;95414.13;;;6.48;95.65
43934;BME280;59081;42.706;23.306;2023-05-12T01:35:20;95453.06;;;6.63;96.11
43934;BME280;59081;42.706;23.306;2023-05-12T01:37:46;95422.06;;;6.32;97.37
43934;BME280;59081;42.706;23.306;2023-05-12T01:40:11;95367.91;;;6.13;97.32
43934;BME280;59081;42.706;23.306;2023-05-12T01:42:41;95326.72;;;5.82;97.30
43934;BME280;59081;42.706;23.306;2023-05-12T01:45:07;95441.09;;;6.46;98.12
43934;BME280;59081;42.706;23.306;2023-05-12T01:47:33;95414.38;;;6.20;98.52
43934;BME280;59081;42.706;23.306;2023-05-12T01:49:59;95410.03;;;6.22;99.19
43934;BME280;59081;42.706;23.306;2023-05-12T01:52:24;95359.13;;;5.87;99.28
43934;BME280;59081;42.706;23.306;2023-05-12T01:54:50;95372.31;;;6.00;100.00
43934;BME280;59081;42.706;23.306;2023-05-12T01:57:16;95358.69;;;5.92;100.00
43934;BME280;59081;42.706;23.306;2023-05-12T01:59:42;95394.94;;;6.04;100.00
43934;BME280;59081;42.706;23.306;2023-05-12T02:02:07;95389.13;;;5.98;100.00
43934;BME280;59081;42.706;23.306;2023-05-12T02:04:33;95429.06;;;6.37;100.00
43934;BME280;59081;42.706;23.306;2023-05-12T02:06:59;95414.63;;;6.36;100.00
43934;BME280;59081;42.706;23.306;2023-05-12T02:09:24;95419.63;;;6.41;100.00
43934;BME280;59081;42.706;23.306;2023-05-12T02:11:50;95464.88;;;6.56;100.00
43934;BME280;59081;42.706;23.306;2023-05-12T02:14:16;95415.53;;;6.19;100.00
43934;BME280;59081;42.706;23.306;2023-05-12T02:16:41;95426.47;;;6.19;100.00
43934;BME280;59081;42.706;23.306;2023-05-12T02:19:07;95461.56;;;6.27;100.00
43934;BME280;59081;42.706;23.306;2023-05-12T02:21:32;95445.19;;;6.24;100.00
43934;BME280;59081;42.706;23.306;2023-05-12T02:23:58;95524.19;;;6.74;100.00
43934;BME280;59081;42.706;23.306;2023-05-12T02:26:23;95336.34;;;5.49;100.00
43934;BME280;59081;42.706;23.306;2023-05-12T02:28:49;95395.03;;;5.89;100.00
43934;BME280;59081;42.706;23.306;2023-05-12T02:31:14;95524.59;;;6.69;100.00
43934;BME280;59081;42.706;23.306;2023-05-12T02:33:40;95341.06;;;5.38;100.00
43934;BME280;59081;42.706;23.306;2023-05-12T02:36:06;95514.50;;;6.58;100.00
43934;BME280;59081;42.706;23.306;2023-05-12T02:38:31;95521.97;;;6.58;100.00
43934;BME280;59081;42.706;23.306;2023-05-12T02:40:57;95434.91;;;5.83;100.00
43934;BME280;59081;42.706;23.306;2023-05-12T02:43:22;95525.56;;;6.41;100.00
43934;BME280;59081;42.706;23.306;2023-05-12T02:45:48;95444.25;;;5.89;100.00
43934;BME280;59081;42.706;23.306;2023-05-12T02:48:13;95524.84;;;6.33;100.00
43934;BME280;59081;42.706;23.306;2023-05-12T02:50:39;95404.63;;;5.49;100.00
43934;BME280;59081;42.706;23.306;2023-05-12T02:53:04;95376.66;;;5.28;100.00
43934;BME280;59081;42.706;23.306;2023-05-12T02:55:30;95333.41;;;5.19;100.00
43934;BME280;59081;42.706;23.306;2023-05-12T02:57:56;95315.56;;;4.93;100.00
43934;BME280;59081;42.706;23.306;2023-05-12T03:00:21;95520.97;;;6.31;100.00
43934;BME280;59081;42.706;23.306;2023-05-12T03:02:47;95441.22;;;5.70;100.00
43934;BME280;59081;42.706;23.306;2023-05-12T03:05:12;95520.25;;;6.23;100.00
43934;BME280;59081;42.706;23.306;2023-05-12T03:07:38;95379.03;;;5.18;100.00
43934;BME280;59081;42.706;23.306;2023-05-12T03:10:04;95370.09;;;5.14;100.00
43934;BME280;59081;42.706;23.306;2023-05-12T03:12:30;95423.75;;;5.53;100.00
43934;BME280;59081;42.706;23.306;2023-05-12T03:14:56;95343.25;;;4.99;100.00
43934;BME280;59081;42.706;23.306;2023-05-12T03:17:21;95326.09;;;4.91;100.00
43934;BME280;59081;42.706;23.306;2023-05-12T03:19:47;95447.47;;;5.70;100.00
43934;BME280;59081;42.706;23.306;2023-05-12T03:22:13;95297.31;;;4.83;100.00
43934;BME280;59081;42.706;23.306;2023-05-12T03:24:38;95339.81;;;4.80;100.00
43934;BME280;59081;42.706;23.306;2023-05-12T03:27:04;95488.38;;;5.91;100.00
43934;BME280;59081;42.706;23.306;2023-05-12T03:29:30;95408.19;;;5.39;100.00
43934;BME280;59081;42.706;23.306;2023-05-12T03:32:01;95407.41;;;5.39;100.00
43934;BME280;59081;42.706;23.306;2023-05-12T03:34:26;95364.72;;;4.93;100.00
43934;BME280;59081;42.706;23.306;2023-05-12T03:36:52;95423.78;;;5.42;100.00
43934;BME280;59081;42.706;23.306;2023-05-12T03:39:17;95433.50;;;5.54;100.00
43934;BME280;59081;42.706;23.306;2023-05-12T03:41:43;95492.63;;;6.00;100.00
43934;BME280;59081;42.706;23.306;2023-05-12T03:44:08;95326.16;;;4.84;100.00
43934;BME280;59081;42.706;23.306;2023-05-12T03:46:35;95409.41;;;5.35;100.00
43934;BME280;59081;42.706;23.306;2023-05-12T03:49:00;95467.72;;;5.76;100.00
43934;BME280;59081;42.706;23.306;2023-05-12T03:51:26;95400.38;;;5.38;100.00
43934;BME280;59081;42.706;23.306;2023-05-12T03:53:55;95398.09;;;5.33;100.00
43934;BME280;59081;42.706;23.306;2023-05-12T03:56:20;95556.97;;;6.22;100.00
43934;BME280;59081;42.706;23.306;2023-05-12T03:58:47;95309.47;;;4.57;100.00
43934;BME280;59081;42.706;23.306;2023-05-12T04:01:12;95557.81;;;6.12;100.00
43934;BME280;59081;42.706;23.306;2023-05-12T04:03:38;95549.94;;;6.21;100.00
43934;BME280;59081;42.706;23.306;2023-05-12T04:06:05;95421.75;;;5.57;100.00
43934;BME280;59081;42.706;23.306;2023-05-12T04:08:32;95358.78;;;5.09;100.00
43934;BME280;59081;42.706;23.306;2023-05-12T04:10:59;95562.31;;;6.43;100.00
43934;BME280;59081;42.706;23.306;2023-05-12T04:13:26;95554.56;;;6.35;100.00
43934;BME280;59081;42.706;23.306;2023-05-12T04:15:58;95455.63;;;5.77;100.00
43934;BME280;59081;42.706;23.306;2023-05-12T04:18:25;95475.47;;;5.96;100.00
43934;BME280;59081;42.706;23.306;2023-05-12T04:20:54;95438.03;;;5.78;100.00
43934;BME280;59081;42.706;23.306;2023-05-12T04:23:20;95369.25;;;5.21;100.00
43934;BME280;59081;42.706;23.306;2023-05-12T04:25:45;95330.69;;;5.15;100.00
43934;BME280;59081;42.706;23.306;2023-05-12T04:28:11;95317.91;;;4.98;100.00
43934;BME280;59081;42.706;23.306;2023-05-12T04:30:40;95357.53;;;5.24;100.00
43934;BME280;59081;42.706;23.306;2023-05-12T04:33:09;95376.16;;;5.50;100.00
43934;BME280;59081;42.706;23.306;2023-05-12T04:35:34;95427.50;;;5.80;100.00
43934;BME280;59081;42.706;23.306;2023-05-12T04:38:00;95418.16;;;5.74;100.00
43934;BME280;59081;42.706;23.306;2023-05-12T04:40:26;95370.81;;;5.91;100.00
43934;BME280;59081;42.706;23.306;2023-05-12T04:42:52;95465.81;;;6.36;100.00
43934;BME280;59081;42.706;23.306;2023-05-12T04:45:18;95455.00;;;6.21;100.00
43934;BME280;59081;42.706;23.306;2023-05-12T04:47:43;95399.00;;;5.74;100.00
43934;BME280;59081;42.706;23.306;2023-05-12T04:50:10;95368.63;;;5.69;100.00
43934;BME280;59081;42.706;23.306;2023-05-12T04:52:36;95538.00;;;6.56;100.00
43934;BME280;59081;42.706;23.306;2023-05-12T04:55:02;95294.50;;;4.97;100.00
43934;BME280;59081;42.706;23.306;2023-05-12T04:57:27;95566.84;;;6.68;100.00
43934;BME280;59081;42.706;23.306;2023-05-12T04:59:53;95440.72;;;5.92;100.00
43934;BME280;59081;42.706;23.306;2023-05-12T05:02:18;95410.03;;;5.64;100.00
43934;BME280;59081;42.706;23.306;2023-05-12T05:04:44;95479.63;;;6.18;100.00
43934;BME280;59081;42.706;23.306;2023-05-12T05:07:10;95562.72;;;6.93;100.00
43934;BME280;59081;42.706;23.306;2023-05-12T05:09:35;95493.91;;;6.43;100.00
43934;BME280;59081;42.706;23.306;2023-05-12T05:12:01;95512.22;;;6.50;100.00
43934;BME280;59081;42.706;23.306;2023-05-12T05:14:26;95543.44;;;6.59;100.00
43934;BME280;59081;42.706;23.306;2023-05-12T05:16:52;95567.53;;;6.79;100.00
43934;BME280;59081;42.706;23.306;2023-05-12T05:19:18;95452.31;;;6.11;100.00
43934;BME280;59081;42.706;23.306;2023-05-12T05:21:44;95564.41;;;6.77;100.00
43934;BME280;59081;42.706;23.306;2023-05-12T05:24:09;95519.22;;;6.58;100.00
43934;BME280;59081;42.706;23.306;2023-05-12T05:26:35;95429.78;;;5.89;100.00
43934;BME280;59081;42.706;23.306;2023-05-12T05:29:00;95386.97;;;5.65;100.00
43934;BME280;59081;42.706;23.306;2023-05-12T05:31:29;95558.22;;;6.73;100.00
43934;BME280;59081;42.706;23.306;2023-05-12T05:33:54;95584.63;;;6.93;100.00
43934;BME280;59081;42.706;23.306;2023-05-12T05:36:23;95537.16;;;6.59;100.00
43934;BME280;59081;42.706;23.306;2023-05-12T05:38:52;95432.13;;;5.90;100.00
43934;BME280;59081;42.706;23.306;2023-05-12T05:41:18;95586.16;;;6.98;100.00
43934;BME280;59081;42.706;23.306;2023-05-12T05:43:43;95481.06;;;6.37;100.00
43934;BME280;59081;42.706;23.306;2023-05-12T05:46:09;95572.84;;;7.00;100.00
43934;BME280;59081;42.706;23.306;2023-05-12T05:48:35;95451.88;;;6.19;100.00
43934;BME280;59081;42.706;23.306;2023-05-12T05:51:01;95371.38;;;5.65;100.00
43934;BME280;59081;42.706;23.306;2023-05-12T05:53:26;95391.91;;;5.87;100.00
43934;BME280;59081;42.706;23.306;2023-05-12T05:55:52;95496.13;;;6.59;100.00
43934;BME280;59081;42.706;23.306;2023-05-12T05:58:18;95394.13;;;6.07;100.00
43934;BME280;59081;42.706;23.306;2023-05-12T06:00:43;95557.66;;;6.92;100.00
43934;BME280;59081;42.706;23.306;2023-05-12T06:03:09;95383.72;;;5.87;100.00
43934;BME280;59081;42.706;23.306;2023-05-12T06:05:34;95508.56;;;6.67;100.00
43934;BME280;59081;42.706;23.306;2023-05-12T06:08:00;95438.91;;;6.27;100.00
43934;BME280;59081;42.706;23.306;2023-05-12T06:10:26;95561.31;;;7.19;100.00
43934;BME280;59081;42.706;23.306;2023-05-12T06:12:53;95556.22;;;7.21;100.00
43934;BME280;59081;42.706;23.306;2023-05-12T06:15:19;95538.63;;;7.19;100.00
43934;BME280;59081;42.706;23.306;2023-05-12T06:17:44;95490.78;;;6.89;100.00
43934;BME280;59081;42.706;23.306;2023-05-12T06:20:10;95427.66;;;6.62;99.71
43934;BME280;59081;42.706;23.306;2023-05-12T06:22:37;95375.72;;;6.14;98.81
43934;BME280;59081;42.706;23.306;2023-05-12T06:25:03;95551.13;;;7.23;99.59
43934;BME280;59081;42.706;23.306;2023-05-12T06:27:29;95488.38;;;6.95;99.07
43934;BME280;59081;42.706;23.306;2023-05-12T06:29:54;95482.88;;;6.95;99.06
43934;BME280;59081;42.706;23.306;2023-05-12T06:32:20;95437.75;;;6.73;99.19
43934;BME280;59081;42.706;23.306;2023-05-12T06:34:46;95448.25;;;6.78;96.71
43934;BME280;59081;42.706;23.306;2023-05-12T06:37:11;95463.78;;;6.91;98.01
43934;BME280;59081;42.706;23.306;2023-05-12T06:39:37;95511.66;;;7.14;97.54
43934;BME280;59081;42.706;23.306;2023-05-12T06:42:02;95555.19;;;7.46;97.31
43934;BME280;59081;42.706;23.306;2023-05-12T06:44:28;95419.53;;;6.55;96.17
43934;BME280;59081;42.706;23.306;2023-05-12T06:46:54;95609.94;;;7.90;96.51
43934;BME280;59081;42.706;23.306;2023-05-12T06:49:19;95570.66;;;7.63;95.76
43934;BME280;59081;42.706;23.306;2023-05-12T06:51:45;95538.66;;;7.53;94.77
43934;BME280;59081;42.706;23.306;2023-05-12T06:54:11;95613.75;;;8.00;94.83
43934;BME280;59081;42.706;23.306;2023-05-12T06:56:36;95438.41;;;6.84;93.95
43934;BME280;59081;42.706;23.306;2023-05-12T06:59:02;95407.22;;;6.74;93.49
43934;BME280;59081;42.706;23.306;2023-05-12T07:01:29;95524.63;;;7.47;93.08
43934;BME280;59081;42.706;23.306;2023-05-12T07:03:56;95492.03;;;7.22;93.43
43934;BME280;59081;42.706;23.306;2023-05-12T07:06:22;95469.53;;;7.01;92.94
43934;BME280;59081;42.706;23.306;2023-05-12T07:08:48;95427.56;;;6.73;92.67
43934;BME280;59081;42.706;23.306;2023-05-12T07:11:14;95604.34;;;7.97;93.35
43934;BME280;59081;42.706;23.306;2023-05-12T07:13:47;95608.75;;;7.91;93.58
43934;BME280;59081;42.706;23.306;2023-05-12T07:16:14;95413.53;;;6.68;93.41
43934;BME280;59081;42.706;23.306;2023-05-12T07:18:40;95456.47;;;7.15;92.62
43934;BME280;59081;42.706;23.306;2023-05-12T07:21:05;95489.06;;;7.44;92.77
43934;BME280;59081;42.706;23.306;2023-05-12T07:23:31;95621.38;;;8.16;91.93
43934;BME280;59081;42.706;23.306;2023-05-12T07:25:58;95517.94;;;7.52;93.12
43934;BME280;59081;42.706;23.306;2023-05-12T07:28:24;95627.16;;;8.25;93.69
43934;BME280;59081;42.706;23.306;2023-05-12T07:30:50;95428.34;;;7.11;93.54
43934;BME280;59081;42.706;23.306;2023-05-12T07:33:15;95611.38;;;8.36;94.33
43934;BME280;59081;42.706;23.306;2023-05-12T07:35:41;95512.69;;;7.64;93.46
43934;BME280;59081;42.706;23.306;2023-05-12T07:38:06;95490.13;;;7.50;93.45
43934;BME280;59081;42.706;23.306;2023-05-12T07:40:33;95488.78;;;7.31;93.37
43934;BME280;59081;42.706;23.306;2023-05-12T07:43:01;95496.06;;;7.45;93.50
43934;BME280;59081;42.706;23.306;2023-05-12T07:45:27;95533.13;;;7.60;93.52
43934;BME280;59081;42.706;23.306;2023-05-12T07:47:52;95486.72;;;7.42;94.69
43934;BME280;59081;42.706;23.306;2023-05-12T07:50:18;95487.91;;;7.41;93.32
43934;BME280;59081;42.706;23.306;2023-05-12T07:52:50;95487.13;;;7.41;92.74
43934;BME280;59081;42.706;23.306;2023-05-12T07:55:19;95557.81;;;7.90;92.88
43934;BME280;59081;42.706;23.306;2023-05-12T07:57:45;95572.31;;;8.21;93.08
43934;BME280;59081;42.706;23.306;2023-05-12T08:00:11;95520.88;;;7.98;92.47
43934;BME280;59081;42.706;23.306;2023-05-12T08:02:37;95537.44;;;8.22;90.84
43934;BME280;59081;42.706;23.306;2023-05-12T08:05:03;95571.19;;;8.49;90.68
43934;BME280;59081;42.706;23.306;2023-05-12T08:07:29;95520.50;;;8.27;89.99
43934;BME280;59081;42.706;23.306;2023-05-12T08:09:54;95615.19;;;8.99;89.62
43934;BME280;59081;42.706;23.306;2023-05-12T08:12:20;95498.16;;;8.55;90.14
43934;BME280;59081;42.706;23.306;2023-05-12T08:14:45;95625.38;;;9.49;87.95
43934;BME280;59081;42.706;23.306;2023-05-12T08:17:11;95497.56;;;8.91;85.86
43934;BME280;59081;42.706;23.306;2023-05-12T08:19:37;95605.56;;;9.58;85.03
43934;BME280;59081;42.706;23.306;2023-05-12T08:22:02;95415.72;;;8.35;83.73
43934;BME280;59081;42.706;23.306;2023-05-12T08:24:28;95497.09;;;8.96;83.83
43934;BME280;59081;42.706;23.306;2023-05-12T08:26:53;95609.97;;;9.75;82.64
43934;BME280;59081;42.706;23.306;2023-05-12T08:29:19;95486.34;;;8.82;82.41
43934;BME280;59081;42.706;23.306;2023-05-12T08:31:44;95539.38;;;9.25;83.03
43934;BME280;59081;42.706;23.306;2023-05-12T08:34:10;95503.53;;;8.86;82.21
43934;BME280;59081;42.706;23.306;2023-05-12T08:36:36;95490.56;;;8.86;82.86
43934;BME280;59081;42.706;23.306;2023-05-12T08:39:01;95546.22;;;9.37;80.33
43934;BME280;59081;42.706;23.306;2023-05-12T08:41:42;95482.31;;;9.10;80.87
43934;BME280;59081;42.706;23.306;2023-05-12T08:44:10;95561.16;;;9.59;79.43
43934;BME280;59081;42.706;23.306;2023-05-12T08:46:35;95500.31;;;9.14;80.24
43934;BME280;59081;42.706;23.306;2023-05-12T08:49:02;95478.44;;;8.84;79.54
43934;BME280;59081;42.706;23.306;2023-05-12T08:51:30;95379.09;;;8.46;78.21
43934;BME280;59081;42.706;23.306;2023-05-12T08:53:56;95512.34;;;9.43;77.71
43934;BME280;59081;42.706;23.306;2023-05-12T08:56:23;95577.09;;;10.07;77.49
43934;BME280;59081;42.706;23.306;2023-05-12T08:58:49;95531.09;;;9.88;77.37
43934;BME280;59081;42.706;23.306;2023-05-12T09:01:15;95464.03;;;9.62;77.16
43934;BME280;59081;42.706;23.306;2023-05-12T09:03:41;95549.94;;;10.09;75.71
43934;BME280;59081;42.706;23.306;2023-05-12T09:06:07;95441.97;;;9.26;75.72
43934;BME280;59081;42.706;23.306;2023-05-12T09:08:33;95524.81;;;9.88;75.73
43934;BME280;59081;42.706;23.306;2023-05-12T09:11:01;95609.00;;;10.64;75.20
43934;BME280;59081;42.706;23.306;2023-05-12T09:13:32;95537.06;;;10.42;73.53
43934;BME280;59081;42.706;23.306;2023-05-12T09:16:03;95497.50;;;10.17;73.21
43934;BME280;59081;42.706;23.306;2023-05-12T09:18:49;95436.06;;;10.03;72.87
43934;BME280;59081;42.706;23.306;2023-05-12T09:21:15;95425.06;;;10.03;70.70
43934;BME280;59081;42.706;23.306;2023-05-12T09:26:22;95560.84;;;11.05;70.37
43934;BME280;59081;42.706;23.306;2023-05-12T09:28:49;95472.44;;;10.47;70.16
43934;BME280;59081;42.706;23.306;2023-05-12T09:31:20;95508.63;;;10.81;68.84
43934;BME280;59081;42.706;23.306;2023-05-12T09:33:47;95477.19;;;10.79;69.67
43934;BME280;59081;42.706;23.306;2023-05-12T09:36:20;95473.16;;;10.51;68.77
43934;BME280;59081;42.706;23.306;2023-05-12T09:38:46;95572.78;;;11.31;73.14
43934;BME280;59081;42.706;23.306;2023-05-12T09:41:11;95439.38;;;10.31;69.27
43934;BME280;59081;42.706;23.306;2023-05-12T09:43:43;95480.44;;;10.74;69.66
43934;BME280;59081;42.706;23.306;2023-05-12T09:46:09;95471.59;;;10.50;69.35
43934;BME280;59081;42.706;23.306;2023-05-12T09:48:34;95599.16;;;11.32;69.31
43934;BME280;59081;42.706;23.306;2023-05-12T09:51:03;95526.72;;;10.82;69.21
43934;BME280;59081;42.706;23.306;2023-05-12T09:53:28;95519.38;;;10.76;69.23
43934;BME280;59081;42.706;23.306;2023-05-12T09:55:54;95490.63;;;10.77;69.72
43934;BME280;59081;42.706;23.306;2023-05-12T09:58:20;95487.69;;;11.00;69.94
43934;BME280;59081;42.706;23.306;2023-05-12T10:00:46;95521.19;;;11.15;68.80
43934;BME280;59081;42.706;23.306;2023-05-12T10:03:16;95579.66;;;11.55;69.76
43934;BME280;59081;42.706;23.306;2023-05-12T10:05:49;95448.78;;;10.82;69.77
43934;BME280;59081;42.706;23.306;2023-05-12T10:08:23;95394.94;;;10.77;68.77
43934;BME280;59081;42.706;23.306;2023-05-12T10:10:50;95473.28;;;11.09;69.40
43934;BME280;59081;42.706;23.306;2023-05-12T10:13:16;95470.34;;;11.16;68.32
43934;BME280;59081;42.706;23.306;2023-05-12T10:15:43;95568.91;;;11.90;68.62
43934;BME280;59081;42.706;23.306;2023-05-12T10:18:09;95438.34;;;11.35;67.69
43934;BME280;59081;42.706;23.306;2023-05-12T10:20:35;95471.41;;;11.64;67.43
43934;BME280;59081;42.706;23.306;2023-05-12T10:23:01;95503.75;;;11.63;67.18
43934;BME280;59081;42.706;23.306;2023-05-12T10:25:28;95581.47;;;12.07;66.80
43934;BME280;59081;42.706;23.306;2023-05-12T10:27:56;95479.78;;;11.60;66.40
43934;BME280;59081;42.706;23.306;2023-05-12T10:30:23;95487.41;;;11.85;65.48
43934;BME280;59081;42.706;23.306;2023-05-12T10:32:48;95438.81;;;11.46;64.57
43934;BME280;59081;42.706;23.306;2023-05-12T10:35:15;95433.88;;;11.54;64.95
43934;BME280;59081;42.706;23.306;2023-05-12T10:37:41;95506.03;;;12.23;64.59
43934;BME280;59081;42.706;23.306;2023-05-12T10:40:07;95419.88;;;12.02;64.06
43934;BME280;59081;42.706;23.306;2023-05-12T10:42:41;95508.16;;;12.95;62.37
43934;BME280;59081;42.706;23.306;2023-05-12T10:45:15;95438.34;;;12.43;61.67
43934;BME280;59081;42.706;23.306;2023-05-12T10:47:44;95459.75;;;12.52;61.78
43934;BME280;59081;42.706;23.306;2023-05-12T10:50:11;95444.91;;;12.84;61.23
43934;BME280;59081;42.706;23.306;2023-05-12T10:52:39;95447.38;;;13.16;59.94
43934;BME280;59081;42.706;23.306;2023-05-12T10:55:10;95440.13;;;13.66;59.78
43934;BME280;59081;42.706;23.306;2023-05-12T10:57:46;95450.13;;;14.16;57.49
43934;BME280;59081;42.706;23.306;2023-05-12T11:00:13;95433.75;;;13.56;58.62
43934;BME280;59081;42.706;23.306;2023-05-12T11:02:48;95413.53;;;13.12;58.70
43934;BME280;59081;42.706;23.306;2023-05-12T11:05:14;95465.75;;;13.23;60.17
43934;BME280;59081;42.706;23.306;2023-05-12T11:07:46;95536.53;;;14.02;59.33
43934;BME280;59081;42.706;23.306;2023-05-12T11:10:12;95469.72;;;13.78;57.76
43934;BME280;59081;42.706;23.306;2023-05-12T11:12:37;95452.66;;;13.80;57.72
43934;BME280;59081;42.706;23.306;2023-05-12T11:15:04;95380.38;;;13.56;55.89
43934;BME280;59081;42.706;23.306;2023-05-12T11:17:30;95521.09;;;14.23;56.14
43934;BME280;59081;42.706;23.306;2023-05-12T11:19:56;95411.53;;;13.47;56.64
43934;BME280;59081;42.706;23.306;2023-05-12T11:22:22;95397.13;;;13.31;57.39
43934;BME280;59081;42.706;23.306;2023-05-12T11:24:49;95393.50;;;13.21;57.42
43934;BME280;59081;42.706;23.306;2023-05-12T11:27:17;95462.63;;;13.55;56.63
43934;BME280;59081;42.706;23.306;2023-05-12T11:29:44;95398.53;;;13.01;56.03
43934;BME280;59081;42.706;23.306;2023-05-12T11:32:13;95473.06;;;13.17;57.37
43934;BME280;59081;42.706;23.306;2023-05-12T11:34:39;95410.41;;;12.88;55.93
43934;BME280;59081;42.706;23.306;2023-05-12T11:37:05;95408.63;;;12.95;56.05
43934;BME280;59081;42.706;23.306;2023-05-12T11:39:31;95426.81;;;13.05;55.81
43934;BME280;59081;42.706;23.306;2023-05-12T11:42:04;95429.38;;;13.12;56.67
43934;BME280;59081;42.706;23.306;2023-05-12T11:44:32;95406.75;;;12.92;57.95
43934;BME280;59081;42.706;23.306;2023-05-12T11:49:25;95459.81;;;12.86;56.38
43934;BME280;59081;42.706;23.306;2023-05-12T11:51:56;95469.44;;;12.95;56.55
43934;BME280;59081;42.706;23.306;2023-05-12T11:54:22;95431.84;;;12.84;56.36
43934;BME280;59081;42.706;23.306;2023-05-12T11:56:52;95456.47;;;13.04;55.61
43934;BME280;59081;42.706;23.306;2023-05-12T11:59:34;95425.34;;;12.66;56.15
43934;BME280;59081;42.706;23.306;2023-05-12T12:02:01;95543.59;;;13.47;56.66
43934;BME280;59081;42.706;23.306;2023-05-12T12:04:34;95561.81;;;13.57;56.92
43934;BME280;59081;42.706;23.306;2023-05-12T12:07:00;95341.78;;;12.27;56.81
43934;BME280;59081;42.706;23.306;2023-05-12T12:09:36;95547.75;;;13.86;56.29
43934;BME280;59081;42.706;23.306;2023-05-12T12:12:03;95455.66;;;13.29;56.69
43934;BME280;59081;42.706;23.306;2023-05-12T12:14:30;95510.91;;;13.54;56.57
43934;BME280;59081;42.706;23.306;2023-05-12T12:16:57;95407.50;;;12.92;57.00
43934;BME280;59081;42.706;23.306;2023-05-12T12:19:23;95477.81;;;13.04;57.86
43934;BME280;59081;42.706;23.306;2023-05-12T12:21:50;95502.59;;;13.20;58.99
43934;BME280;59081;42.706;23.306;2023-05-12T12:24:15;95465.59;;;12.79;58.99
43934;BME280;59081;42.706;23.306;2023-05-12T12:26:42;95438.75;;;12.54;58.99
43934;BME280;59081;42.706;23.306;2023-05-12T12:29:07;95438.88;;;12.51;59.17
43934;BME280;59081;42.706;23.306;2023-05-12T12:31:33;95552.38;;;13.20;59.26
43934;BME280;59081;42.706;23.306;2023-05-12T12:34:00;95495.91;;;12.70;59.69
43934;BME280;59081;42.706;23.306;2023-05-12T12:36:27;95476.66;;;12.79;59.42
43934;BME280;59081;42.706;23.306;2023-05-12T12:38:52;95413.81;;;12.45;57.85
43934;BME280;59081;42.706;23.306;2023-05-12T12:41:17;95451.13;;;12.75;58.07
43934;BME280;59081;42.706;23.306;2023-05-12T12:43:43;95538.78;;;13.26;58.86
43934;BME280;59081;42.706;23.306;2023-05-12T12:46:09;95394.91;;;12.18;58.98
43934;BME280;59081;42.706;23.306;2023-05-12T12:48:34;95417.09;;;12.02;59.57
43934;BME280;59081;42.706;23.306;2023-05-12T12:51:00;95392.69;;;12.01;59.70
43934;BME280;59081;42.706;23.306;2023-05-12T12:53:26;95442.22;;;12.46;59.21
43934;BME280;59081;42.706;23.306;2023-05-12T12:55:52;95395.78;;;12.15;59.16